AirNav   Pilot Hours Calculator
 
 1013 users online  

MD37 Citizens Bank Headquarters Heliport
Laurel, Maryland, USA

GOING TO LAUREL?


FAA INFORMATION EFFECTIVE 16 JUNE 2022

Location

FAA Identifier: MD37
Lat/Long: 39-05-13.3900N 076-53-49.9060W
39-05.223167N 076-53.831767W
39.0870528,-76.8971961
(estimated)
Elevation: 312 ft. / 95.1 m (surveyed)
Variation: 10W (1985)
From city: 2 miles SW of LAUREL, MD
Time zone: UTC -4 (UTC -5 during Standard Time)
Zip code: 20707

Heliport Operations

Heliport use: Private use. Permission required prior to landing
Activation date: 05/1989
Control tower: no
ARTCC: WASHINGTON CENTER
FSS: LEESBURG FLIGHT SERVICE STATION
Attendance: UNATNDD
Segmented circle: no

Heliport Communications

WX AWOS-3 at FME (6 nm E): 123.925
WX AWOS-3 at CGS (6 nm S): 121.225 (301-864-5497)
WX ASOS at BWI (12 nm NE): PHONE 410-691-1278
WX AWOS-3PT at GAI (13 nm W): 128.275 (301-977-2971)
WX ASOS at DCA (16 nm SW): 132.65 (703-418-1177)

Heliport Services

Runway Information

Helipad H1

Dimensions: 45 x 40 ft. / 14 x 12 m
Surface: asphalt
Traffic pattern: leftleft

Heliport Ownership and Management from official FAA records

Ownership: Privately-owned
Owner: CITIZENS BANK OF MARYLAND
14401 SWEITZER LANE
LAUREL, MD 20707
Phone 301-206-6165
Manager: RICHARD L. PROSSER
14401 SWEITZER LANE
LAUREL, MD 20707
Phone 301-206-6165

Additional Remarks

FOR CD CTC POTOMAC APCH AT 866-429-5882.

Instrument Procedures

There are no published instrument procedures at MD37.

Some nearby airports with instrument procedures:

KFME - Tipton Airport (6 nm E)
KCGS - College Park Airport (6 nm S)
W00 - Freeway Airport (11 nm SE)
KBWI - Baltimore/Washington International Thurgood Marshall Airport (12 nm NE)
KGAI - Montgomery County Airpark (13 nm W)
W50 - Davis Airport (15 nm NW)
KDCA - Ronald Reagan Washington National Airport (16 nm SW)
KADW - Joint Base Andrews (17 nm S)
KANP - Lee Airport (18 nm SE)
 
Loc | Ops | Rwys | IFR | FBO | Links
Com | Nav | Svcs | Stats | Notes
Area around MD37 (Citizens Bank Headquarters Heliport)
 
Road maps at: MapQuest Bing Google
 
Aerial photo
No photo
 
Sectional chart

 
Airport distance calculator
Flying to Citizens Bank Headquarters Heliport? Find the distance to fly.

From to MD37

Sunrise and sunset
Times for 02-Jul-2022
 Local
(UTC-4)
 Zulu
(UTC)
Morning civil twilight05:1509:15
Sunrise05:4709:47
Sunset20:3600:36
Evening civil twilight21:0801:08

Current date and time
Zulu (UTC)  02-Jul-2022 13:57:02
Local (UTC-4)  02-Jul-2022 09:57:02
 
METAR
KFME 
6nm E 
021319Z AUTO 23005KT 10SM SCT120 26/23 A2999 RMK AO1
KCGS 
6nm S 
021318Z AUTO 22004KT 10SM CLR A2996 RMK AO1
KBWI 
11nm NE 
021254Z 23007G15KT 10SM FEW020 FEW140 BKN220 BKN250 27/21 A2995 RMK AO2 SLP142 T02720206
KGAI 
13nm W 
021256Z AUTO 24005KT 10SM FEW110 25/22 A3000 RMK AO2 SLP166 T02500217
KDCA 
16nm SW 
021252Z 22009KT 10SM FEW130 BKN160 BKN240 26/21 A2997 RMK AO2 SLP150 T02610206
KADW 
16nm S 
021256Z AUTO 22009KT 10SM FEW180 25/21 A2995 RMK AO2 SLP146 T02500207 $
TAF
KBWI 
11nm NE 
021125Z 0212/0318 23008G16KT P6SM VCSH FEW050 BKN130 FM021900 21008G16KT P6SM -SHRA VCTS BKN050CB BKN130 FM030000 VRB04KT 6SM -SHRA BKN050 BKN130 FM030300 VRB03KT 5SM BR BKN050 BKN130 FM030900 34005KT P6SM SCT050 BKN130
KDCA 
16nm SW 
021125Z 0212/0318 19008G16KT P6SM BKN130 FM021300 22008G16KT P6SM VCSH FEW050 BKN130 FM021900 21008G16KT P6SM -SHRA VCTS BKN050CB BKN130 FM030000 VRB04KT 6SM -SHRA BKN050 BKN130 FM030400 VRB03KT 6SM BR BKN050 BKN130 FM031000 35005KT P6SM SCT050 BKN130
KADW 
16nm S 
020900Z 0209/0315 22009KT 9999 SCT050 OVC150 QNH2994INS TEMPO 0209/0214 22012G18KT BECMG 0218/0219 24012KT 9000 -SHRA VCTS SCT030CB OVC040 QNH2989INS TEMPO 0219/0224 VRB15G25KT 6000 -TSRA BKN030CB BECMG 0300/0301 VRB06KT 9000 -SHRA BKN030 OVC045 QNH2994INS BECMG 0304/0305 VRB06KT 8000 BR FEW030 BKN060 OVC090 QNH3000INS BECMG 0311/0312 34012KT 9999 NSW FEW030 QNH2997INS TX31/0219Z TN21/0308Z
NOTAMs
Click for the latest NOTAMs
NOTAMs are issued by the DoD/FAA and will open in a separate window not controlled by AirNav.

 

 
 

Would you like to see your business listed on this page?

 If your business provides an interesting product or service to pilots, flight crews, aircraft, or users of the Citizens Bank Headquarters Heliport, you should consider listing it here.  To start the listing process, click on the button below
 
Add a business
 

Other Pages about Citizens Bank Headquarters Heliport

Update a link
 
Copyright © AirNav, LLC. All rights reserved. Privacy Policy  Contact